sensor_id;sensor_type;location;lat;lon;timestamp;P1;durP1;ratioP1;P2;durP2;ratioP2
9200;SDS011;4635;48.686;9.008;2022-10-16T00:01:52;1.67;;;1.50;;
9200;SDS011;4635;48.686;9.008;2022-10-16T00:04:30;2.80;;;1.77;;
9200;SDS011;4635;48.686;9.008;2022-10-16T00:07:06;2.90;;;1.87;;
9200;SDS011;4635;48.686;9.008;2022-10-16T00:09:42;2.40;;;1.63;;
9200;SDS011;4635;48.686;9.008;2022-10-16T00:12:20;1.90;;;1.60;;
9200;SDS011;4635;48.686;9.008;2022-10-16T00:14:57;11.10;;;2.07;;
9200;SDS011;4635;48.686;9.008;2022-10-16T00:17:40;2.60;;;1.73;;
9200;SDS011;4635;48.686;9.008;2022-10-16T00:20:22;4.90;;;1.90;;
9200;SDS011;4635;48.686;9.008;2022-10-16T00:23:02;2.00;;;1.80;;
9200;SDS011;4635;48.686;9.008;2022-10-16T00:25:38;1.77;;;1.67;;
9200;SDS011;4635;48.686;9.008;2022-10-16T00:28:14;2.07;;;1.87;;
9200;SDS011;4635;48.686;9.008;2022-10-16T00:30:49;1.87;;;1.70;;
9200;SDS011;4635;48.686;9.008;2022-10-16T00:33:29;2.27;;;2.07;;
9200;SDS011;4635;48.686;9.008;2022-10-16T00:36:05;2.97;;;2.03;;
9200;SDS011;4635;48.686;9.008;2022-10-16T00:38:44;2.17;;;1.60;;
9200;SDS011;4635;48.686;9.008;2022-10-16T00:41:29;1.60;;;1.50;;
9200;SDS011;4635;48.686;9.008;2022-10-16T00:47:10;7.27;;;3.00;;
9200;SDS011;4635;48.686;9.008;2022-10-16T00:49:56;3.53;;;2.60;;
9200;SDS011;4635;48.686;9.008;2022-10-16T00:52:39;1.60;;;1.50;;
9200;SDS011;4635;48.686;9.008;2022-10-16T00:55:24;1.90;;;1.50;;
9200;SDS011;4635;48.686;9.008;2022-10-16T00:58:02;2.10;;;1.47;;
9200;SDS011;4635;48.686;9.008;2022-10-16T01:00:39;7.00;;;1.70;;
9200;SDS011;4635;48.686;9.008;2022-10-16T01:03:26;1.83;;;1.63;;
9200;SDS011;4635;48.686;9.008;2022-10-16T01:06:11;1.50;;;1.40;;
9200;SDS011;4635;48.686;9.008;2022-10-16T01:11:54;1.97;;;1.77;;
9200;SDS011;4635;48.686;9.008;2022-10-16T01:14:37;3.50;;;2.23;;
9200;SDS011;4635;48.686;9.008;2022-10-16T01:17:18;3.53;;;1.70;;
9200;SDS011;4635;48.686;9.008;2022-10-16T01:20:03;7.37;;;3.10;;
9200;SDS011;4635;48.686;9.008;2022-10-16T01:23:00;2.13;;;2.00;;
9200;SDS011;4635;48.686;9.008;2022-10-16T01:25:51;2.33;;;1.97;;
9200;SDS011;4635;48.686;9.008;2022-10-16T01:28:42;1.63;;;1.53;;
9200;SDS011;4635;48.686;9.008;2022-10-16T01:31:24;8.10;;;1.80;;
9200;SDS011;4635;48.686;9.008;2022-10-16T01:34:03;5.30;;;2.23;;
9200;SDS011;4635;48.686;9.008;2022-10-16T01:36:42;5.20;;;2.83;;
9200;SDS011;4635;48.686;9.008;2022-10-16T01:39:28;2.33;;;1.60;;
9200;SDS011;4635;48.686;9.008;2022-10-16T01:42:10;2.13;;;1.70;;
9200;SDS011;4635;48.686;9.008;2022-10-16T01:44:52;1.80;;;1.70;;
9200;SDS011;4635;48.686;9.008;2022-10-16T01:47:33;3.90;;;1.83;;
9200;SDS011;4635;48.686;9.008;2022-10-16T01:50:13;3.00;;;2.10;;
9200;SDS011;4635;48.686;9.008;2022-10-16T01:52:53;2.10;;;1.50;;
9200;SDS011;4635;48.686;9.008;2022-10-16T01:55:35;2.90;;;1.47;;
9200;SDS011;4635;48.686;9.008;2022-10-16T01:58:13;3.03;;;1.43;;
9200;SDS011;4635;48.686;9.008;2022-10-16T02:00:50;1.83;;;1.70;;
9200;SDS011;4635;48.686;9.008;2022-10-16T02:03:27;2.10;;;1.83;;
9200;SDS011;4635;48.686;9.008;2022-10-16T02:06:05;4.20;;;1.50;;
9200;SDS011;4635;48.686;9.008;2022-10-16T02:08:41;4.23;;;1.30;;
9200;SDS011;4635;48.686;9.008;2022-10-16T02:11:15;1.73;;;1.63;;
9200;SDS011;4635;48.686;9.008;2022-10-16T02:13:52;5.50;;;1.53;;
9200;SDS011;4635;48.686;9.008;2022-10-16T02:19:23;2.80;;;1.83;;
9200;SDS011;4635;48.686;9.008;2022-10-16T02:22:00;2.70;;;1.70;;
9200;SDS011;4635;48.686;9.008;2022-10-16T02:24:40;1.67;;;1.57;;
9200;SDS011;4635;48.686;9.008;2022-10-16T02:27:24;6.43;;;1.70;;
9200;SDS011;4635;48.686;9.008;2022-10-16T02:30:07;1.90;;;1.63;;
9200;SDS011;4635;48.686;9.008;2022-10-16T02:32:49;2.80;;;1.40;;
9200;SDS011;4635;48.686;9.008;2022-10-16T02:35:27;4.20;;;1.50;;
9200;SDS011;4635;48.686;9.008;2022-10-16T02:38:05;3.93;;;1.40;;
9200;SDS011;4635;48.686;9.008;2022-10-16T02:40:40;7.77;;;1.50;;
9200;SDS011;4635;48.686;9.008;2022-10-16T02:43:16;1.57;;;1.30;;
9200;SDS011;4635;48.686;9.008;2022-10-16T02:45:51;3.83;;;1.67;;
9200;SDS011;4635;48.686;9.008;2022-10-16T02:48:28;4.60;;;2.07;;
9200;SDS011;4635;48.686;9.008;2022-10-16T02:51:03;4.90;;;1.93;;
9200;SDS011;4635;48.686;9.008;2022-10-16T02:53:38;2.43;;;1.40;;
9200;SDS011;4635;48.686;9.008;2022-10-16T02:56:14;2.13;;;1.80;;
9200;SDS011;4635;48.686;9.008;2022-10-16T02:58:48;2.30;;;1.37;;
9200;SDS011;4635;48.686;9.008;2022-10-16T03:01:22;2.20;;;2.00;;
9200;SDS011;4635;48.686;9.008;2022-10-16T03:04:03;2.80;;;2.43;;
9200;SDS011;4635;48.686;9.008;2022-10-16T03:06:42;1.17;;;1.00;;
9200;SDS011;4635;48.686;9.008;2022-10-16T03:09:17;3.90;;;2.00;;
9200;SDS011;4635;48.686;9.008;2022-10-16T03:11:52;2.80;;;1.17;;
9200;SDS011;4635;48.686;9.008;2022-10-16T03:14:30;1.43;;;1.33;;
9200;SDS011;4635;48.686;9.008;2022-10-16T03:17:04;2.60;;;1.73;;
9200;SDS011;4635;48.686;9.008;2022-10-16T03:19:41;1.50;;;1.40;;
9200;SDS011;4635;48.686;9.008;2022-10-16T03:22:15;2.60;;;1.40;;
9200;SDS011;4635;48.686;9.008;2022-10-16T03:24:50;4.27;;;1.70;;
9200;SDS011;4635;48.686;9.008;2022-10-16T03:27:24;4.23;;;1.30;;
9200;SDS011;4635;48.686;9.008;2022-10-16T03:29:59;3.67;;;1.33;;
9200;SDS011;4635;48.686;9.008;2022-10-16T03:32:40;1.57;;;1.47;;
9200;SDS011;4635;48.686;9.008;2022-10-16T03:35:18;1.33;;;1.23;;
9200;SDS011;4635;48.686;9.008;2022-10-16T03:37:53;3.67;;;1.90;;
9200;SDS011;4635;48.686;9.008;2022-10-16T03:40:28;2.67;;;1.70;;
9200;SDS011;4635;48.686;9.008;2022-10-16T03:43:03;1.40;;;1.30;;
9200;SDS011;4635;48.686;9.008;2022-10-16T03:45:38;6.20;;;2.00;;
9200;SDS011;4635;48.686;9.008;2022-10-16T03:48:11;2.60;;;1.70;;
9200;SDS011;4635;48.686;9.008;2022-10-16T03:50:55;2.53;;;1.80;;
9200;SDS011;4635;48.686;9.008;2022-10-16T03:53:38;1.90;;;1.63;;
9200;SDS011;4635;48.686;9.008;2022-10-16T03:56:16;2.03;;;1.77;;
9200;SDS011;4635;48.686;9.008;2022-10-16T03:58:50;2.50;;;2.30;;
9200;SDS011;4635;48.686;9.008;2022-10-16T04:01:37;8.63;;;1.93;;
9200;SDS011;4635;48.686;9.008;2022-10-16T04:04:12;2.00;;;1.80;;
9200;SDS011;4635;48.686;9.008;2022-10-16T04:06:51;12.80;;;10.17;;
9200;SDS011;4635;48.686;9.008;2022-10-16T04:09:28;2.60;;;1.80;;
9200;SDS011;4635;48.686;9.008;2022-10-16T04:12:04;1.93;;;1.63;;
9200;SDS011;4635;48.686;9.008;2022-10-16T04:14:40;3.47;;;2.00;;
9200;SDS011;4635;48.686;9.008;2022-10-16T04:17:16;3.10;;;1.60;;
9200;SDS011;4635;48.686;9.008;2022-10-16T04:19:52;5.53;;;1.90;;
9200;SDS011;4635;48.686;9.008;2022-10-16T04:22:31;2.77;;;1.87;;
9200;SDS011;4635;48.686;9.008;2022-10-16T04:25:05;3.10;;;1.63;;
9200;SDS011;4635;48.686;9.008;2022-10-16T04:27:45;1.67;;;1.57;;
9200;SDS011;4635;48.686;9.008;2022-10-16T04:30:19;6.70;;;2.60;;
9200;SDS011;4635;48.686;9.008;2022-10-16T04:32:55;2.40;;;2.20;;
9200;SDS011;4635;48.686;9.008;2022-10-16T04:35:28;1.80;;;1.70;;
9200;SDS011;4635;48.686;9.008;2022-10-16T04:38:12;2.20;;;2.00;;
9200;SDS011;4635;48.686;9.008;2022-10-16T04:40:57;3.13;;;2.27;;
9200;SDS011;4635;48.686;9.008;2022-10-16T04:43:34;5.57;;;1.90;;
9200;SDS011;4635;48.686;9.008;2022-10-16T04:46:10;2.20;;;1.70;;
9200;SDS011;4635;48.686;9.008;2022-10-16T04:48:49;3.97;;;2.90;;
9200;SDS011;4635;48.686;9.008;2022-10-16T04:51:25;7.47;;;2.10;;
9200;SDS011;4635;48.686;9.008;2022-10-16T04:54:04;2.20;;;2.00;;
9200;SDS011;4635;48.686;9.008;2022-10-16T04:56:39;1.77;;;1.67;;
9200;SDS011;4635;48.686;9.008;2022-10-16T04:59:15;4.20;;;1.87;;
9200;SDS011;4635;48.686;9.008;2022-10-16T05:01:52;3.00;;;1.50;;
9200;SDS011;4635;48.686;9.008;2022-10-16T05:04:26;2.13;;;1.77;;
9200;SDS011;4635;48.686;9.008;2022-10-16T05:07:06;2.20;;;1.60;;
9200;SDS011;4635;48.686;9.008;2022-10-16T05:09:46;2.17;;;2.03;;
9200;SDS011;4635;48.686;9.008;2022-10-16T05:12:22;7.13;;;2.30;;
9200;SDS011;4635;48.686;9.008;2022-10-16T05:14:58;5.00;;;2.00;;
9200;SDS011;4635;48.686;9.008;2022-10-16T05:17:33;2.27;;;2.00;;
9200;SDS011;4635;48.686;9.008;2022-10-16T05:20:10;2.73;;;1.63;;
9200;SDS011;4635;48.686;9.008;2022-10-16T05:22:50;11.73;;;2.10;;
9200;SDS011;4635;48.686;9.008;2022-10-16T05:25:27;1.90;;;1.70;;
9200;SDS011;4635;48.686;9.008;2022-10-16T05:28:02;2.90;;;2.00;;
9200;SDS011;4635;48.686;9.008;2022-10-16T05:30:37;4.43;;;2.10;;
9200;SDS011;4635;48.686;9.008;2022-10-16T05:33:14;3.00;;;1.70;;
9200;SDS011;4635;48.686;9.008;2022-10-16T05:35:54;7.40;;;1.87;;
9200;SDS011;4635;48.686;9.008;2022-10-16T05:38:42;5.23;;;2.60;;
9200;SDS011;4635;48.686;9.008;2022-10-16T05:41:25;5.40;;;2.33;;
9200;SDS011;4635;48.686;9.008;2022-10-16T05:44:04;4.13;;;2.80;;
9200;SDS011;4635;48.686;9.008;2022-10-16T05:46:43;3.97;;;2.67;;
9200;SDS011;4635;48.686;9.008;2022-10-16T05:49:23;3.60;;;2.50;;
9200;SDS011;4635;48.686;9.008;2022-10-16T05:51:58;4.20;;;2.43;;
9200;SDS011;4635;48.686;9.008;2022-10-16T05:54:33;6.33;;;2.70;;
9200;SDS011;4635;48.686;9.008;2022-10-16T05:57:13;4.00;;;2.53;;
9200;SDS011;4635;48.686;9.008;2022-10-16T05:59:48;8.60;;;2.23;;
9200;SDS011;4635;48.686;9.008;2022-10-16T06:02:27;4.17;;;2.43;;
9200;SDS011;4635;48.686;9.008;2022-10-16T06:05:05;6.93;;;2.07;;
9200;SDS011;4635;48.686;9.008;2022-10-16T06:07:41;5.33;;;2.43;;
9200;SDS011;4635;48.686;9.008;2022-10-16T06:10:21;6.40;;;2.60;;
9200;SDS011;4635;48.686;9.008;2022-10-16T06:12:59;15.23;;;2.80;;
9200;SDS011;4635;48.686;9.008;2022-10-16T06:15:35;3.00;;;2.30;;
9200;SDS011;4635;48.686;9.008;2022-10-16T06:18:10;6.70;;;3.27;;
9200;SDS011;4635;48.686;9.008;2022-10-16T06:20:45;6.90;;;1.93;;
9200;SDS011;4635;48.686;9.008;2022-10-16T06:23:20;5.90;;;2.30;;
9200;SDS011;4635;48.686;9.008;2022-10-16T06:25:55;6.93;;;3.00;;
9200;SDS011;4635;48.686;9.008;2022-10-16T06:28:41;2.73;;;2.10;;
9200;SDS011;4635;48.686;9.008;2022-10-16T06:31:16;6.83;;;2.63;;
9200;SDS011;4635;48.686;9.008;2022-10-16T06:33:53;5.30;;;2.67;;
9200;SDS011;4635;48.686;9.008;2022-10-16T06:36:27;5.93;;;3.17;;
9200;SDS011;4635;48.686;9.008;2022-10-16T06:39:00;3.60;;;2.73;;
9200;SDS011;4635;48.686;9.008;2022-10-16T06:41:34;14.23;;;2.73;;
9200;SDS011;4635;48.686;9.008;2022-10-16T06:44:16;5.20;;;3.00;;
9200;SDS011;4635;48.686;9.008;2022-10-16T06:46:54;3.00;;;2.40;;
9200;SDS011;4635;48.686;9.008;2022-10-16T06:49:30;4.60;;;2.77;;
9200;SDS011;4635;48.686;9.008;2022-10-16T06:52:04;7.67;;;2.10;;
9200;SDS011;4635;48.686;9.008;2022-10-16T06:54:37;4.90;;;3.70;;
9200;SDS011;4635;48.686;9.008;2022-10-16T06:57:10;4.50;;;1.87;;
9200;SDS011;4635;48.686;9.008;2022-10-16T06:59:47;4.43;;;1.70;;
9200;SDS011;4635;48.686;9.008;2022-10-16T07:02:21;3.83;;;2.63;;
9200;SDS011;4635;48.686;9.008;2022-10-16T07:05:00;20.23;;;2.73;;
9200;SDS011;4635;48.686;9.008;2022-10-16T07:07:33;6.80;;;1.80;;
9200;SDS011;4635;48.686;9.008;2022-10-16T07:10:11;3.83;;;2.33;;
9200;SDS011;4635;48.686;9.008;2022-10-16T07:12:46;3.70;;;1.63;;
9200;SDS011;4635;48.686;9.008;2022-10-16T07:15:22;4.40;;;1.60;;
9200;SDS011;4635;48.686;9.008;2022-10-16T07:17:55;1.60;;;1.50;;
9200;SDS011;4635;48.686;9.008;2022-10-16T07:20:29;2.20;;;2.10;;
9200;SDS011;4635;48.686;9.008;2022-10-16T07:23:01;4.77;;;2.10;;
9200;SDS011;4635;48.686;9.008;2022-10-16T07:25:37;1.83;;;1.60;;
9200;SDS011;4635;48.686;9.008;2022-10-16T07:28:14;2.00;;;1.60;;
9200;SDS011;4635;48.686;9.008;2022-10-16T07:30:49;6.50;;;1.30;;
9200;SDS011;4635;48.686;9.008;2022-10-16T07:33:23;5.50;;;1.83;;
9200;SDS011;4635;48.686;9.008;2022-10-16T07:35:56;3.30;;;1.83;;
9200;SDS011;4635;48.686;9.008;2022-10-16T07:38:29;2.73;;;2.47;;
9200;SDS011;4635;48.686;9.008;2022-10-16T07:41:06;2.77;;;2.07;;
9200;SDS011;4635;48.686;9.008;2022-10-16T07:43:46;12.37;;;2.37;;
9200;SDS011;4635;48.686;9.008;2022-10-16T07:46:26;2.13;;;1.60;;
9200;SDS011;4635;48.686;9.008;2022-10-16T07:49:00;3.20;;;1.87;;
9200;SDS011;4635;48.686;9.008;2022-10-16T07:51:33;2.67;;;1.73;;
9200;SDS011;4635;48.686;9.008;2022-10-16T07:54:08;2.43;;;2.20;;
9200;SDS011;4635;48.686;9.008;2022-10-16T07:56:46;3.33;;;2.07;;
9200;SDS011;4635;48.686;9.008;2022-10-16T07:59:19;2.70;;;1.93;;
9200;SDS011;4635;48.686;9.008;2022-10-16T08:01:55;4.20;;;1.40;;
9200;SDS011;4635;48.686;9.008;2022-10-16T08:04:28;2.27;;;1.77;;
9200;SDS011;4635;48.686;9.008;2022-10-16T08:07:02;8.87;;;2.03;;
9200;SDS011;4635;48.686;9.008;2022-10-16T08:09:39;6.83;;;1.57;;
9200;SDS011;4635;48.686;9.008;2022-10-16T08:12:16;6.03;;;1.67;;
9200;SDS011;4635;48.686;9.008;2022-10-16T08:14:49;2.57;;;1.43;;
9200;SDS011;4635;48.686;9.008;2022-10-16T08:17:25;1.57;;;1.47;;
9200;SDS011;4635;48.686;9.008;2022-10-16T08:19:57;2.80;;;1.80;;
9200;SDS011;4635;48.686;9.008;2022-10-16T08:22:32;5.40;;;1.83;;
9200;SDS011;4635;48.686;9.008;2022-10-16T08:25:06;3.40;;;1.47;;
9200;SDS011;4635;48.686;9.008;2022-10-16T08:27:43;2.73;;;1.57;;
9200;SDS011;4635;48.686;9.008;2022-10-16T08:30:16;3.77;;;1.13;;
9200;SDS011;4635;48.686;9.008;2022-10-16T08:32:54;5.77;;;1.70;;
9200;SDS011;4635;48.686;9.008;2022-10-16T08:35:30;1.63;;;1.50;;
9200;SDS011;4635;48.686;9.008;2022-10-16T08:38:06;4.33;;;1.80;;
9200;SDS011;4635;48.686;9.008;2022-10-16T08:40:41;10.87;;;1.90;;
9200;SDS011;4635;48.686;9.008;2022-10-16T08:43:26;6.10;;;1.37;;
9200;SDS011;4635;48.686;9.008;2022-10-16T08:49:17;1.70;;;1.60;;
9200;SDS011;4635;48.686;9.008;2022-10-16T08:51:58;3.80;;;1.57;;
9200;SDS011;4635;48.686;9.008;2022-10-16T08:54:34;1.47;;;1.33;;
9200;SDS011;4635;48.686;9.008;2022-10-16T08:57:13;2.00;;;1.53;;
9200;SDS011;4635;48.686;9.008;2022-10-16T08:59:52;2.80;;;1.70;;
9200;SDS011;4635;48.686;9.008;2022-10-16T09:02:31;1.90;;;1.60;;
9200;SDS011;4635;48.686;9.008;2022-10-16T09:08:19;2.33;;;1.70;;
9200;SDS011;4635;48.686;9.008;2022-10-16T09:11:03;4.33;;;1.70;;
9200;SDS011;4635;48.686;9.008;2022-10-16T09:13:46;1.90;;;1.80;;
9200;SDS011;4635;48.686;9.008;2022-10-16T09:16:28;1.83;;;1.53;;
9200;SDS011;4635;48.686;9.008;2022-10-16T09:19:04;3.23;;;1.67;;
9200;SDS011;4635;48.686;9.008;2022-10-16T09:21:48;4.20;;;1.53;;
9200;SDS011;4635;48.686;9.008;2022-10-16T09:24:28;3.20;;;1.80;;
9200;SDS011;4635;48.686;9.008;2022-10-16T09:27:04;7.90;;;1.60;;
9200;SDS011;4635;48.686;9.008;2022-10-16T09:29:44;2.77;;;1.50;;
9200;SDS011;4635;48.686;9.008;2022-10-16T09:32:18;1.83;;;1.13;;
9200;SDS011;4635;48.686;9.008;2022-10-16T09:34:56;1.77;;;1.67;;
9200;SDS011;4635;48.686;9.008;2022-10-16T09:37:32;7.10;;;1.47;;
9200;SDS011;4635;48.686;9.008;2022-10-16T09:40:05;2.20;;;1.57;;
9200;SDS011;4635;48.686;9.008;2022-10-16T09:42:49;3.30;;;2.27;;
9200;SDS011;4635;48.686;9.008;2022-10-16T09:45:24;5.27;;;1.93;;
9200;SDS011;4635;48.686;9.008;2022-10-16T09:48:01;3.00;;;1.40;;
9200;SDS011;4635;48.686;9.008;2022-10-16T09:50:43;9.67;;;1.73;;
9200;SDS011;4635;48.686;9.008;2022-10-16T09:53:35;6.10;;;1.97;;
9200;SDS011;4635;48.686;9.008;2022-10-16T09:56:21;6.40;;;1.50;;
9200;SDS011;4635;48.686;9.008;2022-10-16T09:58:59;2.03;;;1.73;;
9200;SDS011;4635;48.686;9.008;2022-10-16T10:01:43;3.90;;;1.77;;
9200;SDS011;4635;48.686;9.008;2022-10-16T10:04:19;5.87;;;1.20;;
9200;SDS011;4635;48.686;9.008;2022-10-16T10:06:55;3.60;;;2.83;;
9200;SDS011;4635;48.686;9.008;2022-10-16T10:09:32;8.43;;;1.70;;
9200;SDS011;4635;48.686;9.008;2022-10-16T10:12:16;2.30;;;2.10;;
9200;SDS011;4635;48.686;9.008;2022-10-16T10:14:53;1.47;;;1.13;;
9200;SDS011;4635;48.686;9.008;2022-10-16T10:17:29;1.93;;;1.40;;
9200;SDS011;4635;48.686;9.008;2022-10-16T10:20:15;11.07;;;1.20;;
9200;SDS011;4635;48.686;9.008;2022-10-16T10:22:59;3.67;;;1.77;;
9200;SDS011;4635;48.686;9.008;2022-10-16T10:25:53;4.60;;;1.30;;
9200;SDS011;4635;48.686;9.008;2022-10-16T10:31:33;3.73;;;1.50;;
9200;SDS011;4635;48.686;9.008;2022-10-16T10:34:25;3.07;;;1.30;;
9200;SDS011;4635;48.686;9.008;2022-10-16T10:37:10;2.43;;;1.30;;
9200;SDS011;4635;48.686;9.008;2022-10-16T10:39:56;1.23;;;1.03;;
9200;SDS011;4635;48.686;9.008;2022-10-16T10:42:41;1.87;;;1.07;;
9200;SDS011;4635;48.686;9.008;2022-10-16T10:45:24;3.83;;;1.37;;
9200;SDS011;4635;48.686;9.008;2022-10-16T10:48:06;1.77;;;1.67;;
9200;SDS011;4635;48.686;9.008;2022-10-16T10:51:01;1.47;;;1.17;;
9200;SDS011;4635;48.686;9.008;2022-10-16T10:53:43;5.90;;;1.27;;
9200;SDS011;4635;48.686;9.008;2022-10-16T10:56:29;2.30;;;1.50;;
9200;SDS011;4635;48.686;9.008;2022-10-16T11:02:17;5.73;;;1.37;;
9200;SDS011;4635;48.686;9.008;2022-10-16T11:08:14;4.50;;;1.40;;
9200;SDS011;4635;48.686;9.008;2022-10-16T11:10:51;3.47;;;1.70;;
9200;SDS011;4635;48.686;9.008;2022-10-16T11:13:31;3.93;;;1.10;;
9200;SDS011;4635;48.686;9.008;2022-10-16T11:16:17;7.33;;;1.53;;
9200;SDS011;4635;48.686;9.008;2022-10-16T11:18:59;6.30;;;1.23;;
9200;SDS011;4635;48.686;9.008;2022-10-16T11:21:46;9.80;;;1.50;;
9200;SDS011;4635;48.686;9.008;2022-10-16T11:24:26;4.10;;;1.80;;
9200;SDS011;4635;48.686;9.008;2022-10-16T11:27:08;4.93;;;1.53;;
9200;SDS011;4635;48.686;9.008;2022-10-16T11:29:55;9.10;;;1.43;;
9200;SDS011;4635;48.686;9.008;2022-10-16T11:32:54;2.90;;;1.70;;
9200;SDS011;4635;48.686;9.008;2022-10-16T11:35:41;4.30;;;2.03;;
9200;SDS011;4635;48.686;9.008;2022-10-16T11:38:25;7.10;;;2.20;;
9200;SDS011;4635;48.686;9.008;2022-10-16T11:41:10;2.47;;;2.17;;
9200;SDS011;4635;48.686;9.008;2022-10-16T11:43:56;10.07;;;1.90;;
9200;SDS011;4635;48.686;9.008;2022-10-16T11:46:39;1.83;;;1.10;;
9200;SDS011;4635;48.686;9.008;2022-10-16T11:49:19;2.73;;;1.40;;
9200;SDS011;4635;48.686;9.008;2022-10-16T11:51:58;3.93;;;2.10;;
9200;SDS011;4635;48.686;9.008;2022-10-16T11:54:39;1.87;;;1.40;;
9200;SDS011;4635;48.686;9.008;2022-10-16T11:57:22;1.60;;;1.50;;
9200;SDS011;4635;48.686;9.008;2022-10-16T12:00:02;1.60;;;1.30;;
9200;SDS011;4635;48.686;9.008;2022-10-16T12:02:55;1.97;;;1.77;;
9200;SDS011;4635;48.686;9.008;2022-10-16T12:05:50;2.10;;;1.53;;
9200;SDS011;4635;48.686;9.008;2022-10-16T12:08:50;1.93;;;1.43;;
9200;SDS011;4635;48.686;9.008;2022-10-16T12:11:32;2.40;;;1.50;;
9200;SDS011;4635;48.686;9.008;2022-10-16T12:20:19;3.30;;;1.40;;
9200;SDS011;4635;48.686;9.008;2022-10-16T12:23:03;2.90;;;1.30;;
9200;SDS011;4635;48.686;9.008;2022-10-16T12:25:57;2.20;;;1.60;;
9200;SDS011;4635;48.686;9.008;2022-10-16T12:28:33;7.97;;;5.93;;
9200;SDS011;4635;48.686;9.008;2022-10-16T12:31:08;8.10;;;1.40;;
9200;SDS011;4635;48.686;9.008;2022-10-16T12:33:40;2.50;;;1.20;;
9200;SDS011;4635;48.686;9.008;2022-10-16T12:36:27;9.90;;;1.10;;
9200;SDS011;4635;48.686;9.008;2022-10-16T12:39:23;2.33;;;1.43;;
9200;SDS011;4635;48.686;9.008;2022-10-16T12:42:19;1.93;;;1.60;;
9200;SDS011;4635;48.686;9.008;2022-10-16T12:45:12;1.37;;;1.27;;
9200;SDS011;4635;48.686;9.008;2022-10-16T12:47:58;2.60;;;1.63;;
9200;SDS011;4635;48.686;9.008;2022-10-16T12:50:40;4.47;;;1.87;;
9200;SDS011;4635;48.686;9.008;2022-10-16T12:53:19;2.03;;;1.40;;
9200;SDS011;4635;48.686;9.008;2022-10-16T12:56:09;1.60;;;1.43;;
9200;SDS011;4635;48.686;9.008;2022-10-16T12:58:56;1.60;;;1.50;;
9200;SDS011;4635;48.686;9.008;2022-10-16T13:01:42;10.23;;;1.50;;
9200;SDS011;4635;48.686;9.008;2022-10-16T13:04:41;2.20;;;2.07;;
9200;SDS011;4635;48.686;9.008;2022-10-16T13:07:31;11.27;;;5.47;;
9200;SDS011;4635;48.686;9.008;2022-10-16T13:10:17;5.47;;;3.53;;
9200;SDS011;4635;48.686;9.008;2022-10-16T13:13:14;5.67;;;2.20;;
9200;SDS011;4635;48.686;9.008;2022-10-16T13:16:12;5.43;;;1.90;;
9200;SDS011;4635;48.686;9.008;2022-10-16T13:19:06;4.07;;;1.90;;
9200;SDS011;4635;48.686;9.008;2022-10-16T13:21:53;6.03;;;1.60;;
9200;SDS011;4635;48.686;9.008;2022-10-16T13:24:36;9.77;;;1.80;;
9200;SDS011;4635;48.686;9.008;2022-10-16T13:27:22;2.20;;;1.90;;
9200;SDS011;4635;48.686;9.008;2022-10-16T13:30:08;3.33;;;2.20;;
9200;SDS011;4635;48.686;9.008;2022-10-16T13:32:58;2.97;;;2.20;;
9200;SDS011;4635;48.686;9.008;2022-10-16T13:35:46;2.93;;;2.10;;
9200;SDS011;4635;48.686;9.008;2022-10-16T13:38:25;1.97;;;1.87;;
9200;SDS011;4635;48.686;9.008;2022-10-16T13:41:02;1.47;;;1.30;;
9200;SDS011;4635;48.686;9.008;2022-10-16T13:43:36;7.90;;;1.60;;
9200;SDS011;4635;48.686;9.008;2022-10-16T13:46:38;2.23;;;1.80;;
9200;SDS011;4635;48.686;9.008;2022-10-16T13:49:17;1.83;;;1.73;;
9200;SDS011;4635;48.686;9.008;2022-10-16T13:51:56;3.03;;;1.70;;
9200;SDS011;4635;48.686;9.008;2022-10-16T13:54:31;3.87;;;1.33;;
9200;SDS011;4635;48.686;9.008;2022-10-16T13:57:12;4.57;;;1.77;;
9200;SDS011;4635;48.686;9.008;2022-10-16T13:59:50;2.07;;;1.80;;
9200;SDS011;4635;48.686;9.008;2022-10-16T14:02:31;4.80;;;2.07;;
9200;SDS011;4635;48.686;9.008;2022-10-16T14:05:15;1.50;;;1.40;;
9200;SDS011;4635;48.686;9.008;2022-10-16T14:07:49;7.53;;;2.00;;
9200;SDS011;4635;48.686;9.008;2022-10-16T14:10:26;4.67;;;1.97;;
9200;SDS011;4635;48.686;9.008;2022-10-16T14:12:59;5.80;;;2.10;;
9200;SDS011;4635;48.686;9.008;2022-10-16T14:15:35;2.27;;;2.07;;
9200;SDS011;4635;48.686;9.008;2022-10-16T14:18:16;7.43;;;2.13;;
9200;SDS011;4635;48.686;9.008;2022-10-16T14:20:55;2.00;;;1.80;;
9200;SDS011;4635;48.686;9.008;2022-10-16T14:23:36;7.63;;;1.97;;
9200;SDS011;4635;48.686;9.008;2022-10-16T14:26:14;3.70;;;1.63;;
9200;SDS011;4635;48.686;9.008;2022-10-16T14:29:09;3.33;;;1.47;;
9200;SDS011;4635;48.686;9.008;2022-10-16T14:31:57;4.93;;;1.83;;
9200;SDS011;4635;48.686;9.008;2022-10-16T14:34:34;2.37;;;1.70;;
9200;SDS011;4635;48.686;9.008;2022-10-16T14:37:14;3.00;;;2.07;;
9200;SDS011;4635;48.686;9.008;2022-10-16T14:39:59;2.50;;;1.77;;
9200;SDS011;4635;48.686;9.008;2022-10-16T14:42:34;3.13;;;2.20;;
9200;SDS011;4635;48.686;9.008;2022-10-16T14:45:11;2.30;;;2.10;;
9200;SDS011;4635;48.686;9.008;2022-10-16T14:47:47;4.80;;;2.10;;
9200;SDS011;4635;48.686;9.008;2022-10-16T14:50:27;5.20;;;2.03;;
9200;SDS011;4635;48.686;9.008;2022-10-16T14:53:07;3.37;;;1.90;;
9200;SDS011;4635;48.686;9.008;2022-10-16T14:55:46;1.90;;;1.60;;
9200;SDS011;4635;48.686;9.008;2022-10-16T14:58:23;8.43;;;5.03;;
9200;SDS011;4635;48.686;9.008;2022-10-16T15:00:57;2.47;;;2.27;;
9200;SDS011;4635;48.686;9.008;2022-10-16T15:03:38;4.30;;;2.00;;
9200;SDS011;4635;48.686;9.008;2022-10-16T15:06:26;4.53;;;2.10;;
9200;SDS011;4635;48.686;9.008;2022-10-16T15:08:59;2.70;;;2.13;;
9200;SDS011;4635;48.686;9.008;2022-10-16T15:11:32;4.87;;;2.90;;
9200;SDS011;4635;48.686;9.008;2022-10-16T15:14:08;3.20;;;2.03;;
9200;SDS011;4635;48.686;9.008;2022-10-16T15:16:49;5.57;;;1.80;;
9200;SDS011;4635;48.686;9.008;2022-10-16T15:19:28;7.63;;;1.80;;
9200;SDS011;4635;48.686;9.008;2022-10-16T15:22:06;6.33;;;1.93;;
9200;SDS011;4635;48.686;9.008;2022-10-16T15:24:40;1.87;;;1.77;;
9200;SDS011;4635;48.686;9.008;2022-10-16T15:27:13;7.00;;;1.90;;
9200;SDS011;4635;48.686;9.008;2022-10-16T15:29:46;7.87;;;2.50;;
9200;SDS011;4635;48.686;9.008;2022-10-16T15:32:26;3.63;;;2.17;;
9200;SDS011;4635;48.686;9.008;2022-10-16T15:35:09;6.73;;;1.97;;
9200;SDS011;4635;48.686;9.008;2022-10-16T15:37:54;6.43;;;2.50;;
9200;SDS011;4635;48.686;9.008;2022-10-16T15:40:32;2.63;;;2.43;;
9200;SDS011;4635;48.686;9.008;2022-10-16T15:43:09;2.80;;;2.03;;
9200;SDS011;4635;48.686;9.008;2022-10-16T15:45:45;5.50;;;2.50;;
9200;SDS011;4635;48.686;9.008;2022-10-16T15:48:31;7.97;;;3.60;;
9200;SDS011;4635;48.686;9.008;2022-10-16T15:51:07;6.77;;;3.07;;
9200;SDS011;4635;48.686;9.008;2022-10-16T15:53:45;6.50;;;2.47;;
9200;SDS011;4635;48.686;9.008;2022-10-16T15:56:20;9.40;;;2.23;;
9200;SDS011;4635;48.686;9.008;2022-10-16T15:59:07;5.37;;;2.93;;
9200;SDS011;4635;48.686;9.008;2022-10-16T16:01:43;12.30;;;2.93;;
9200;SDS011;4635;48.686;9.008;2022-10-16T16:04:19;7.57;;;3.80;;
9200;SDS011;4635;48.686;9.008;2022-10-16T16:06:54;6.13;;;3.27;;
9200;SDS011;4635;48.686;9.008;2022-10-16T16:09:30;8.50;;;3.23;;
9200;SDS011;4635;48.686;9.008;2022-10-16T16:12:04;20.80;;;3.80;;
9200;SDS011;4635;48.686;9.008;2022-10-16T16:14:44;9.33;;;3.03;;
9200;SDS011;4635;48.686;9.008;2022-10-16T16:17:17;5.90;;;3.27;;
9200;SDS011;4635;48.686;9.008;2022-10-16T16:19:48;8.50;;;5.73;;
9200;SDS011;4635;48.686;9.008;2022-10-16T16:22:27;6.77;;;2.30;;
9200;SDS011;4635;48.686;9.008;2022-10-16T16:25:06;13.90;;;2.80;;
9200;SDS011;4635;48.686;9.008;2022-10-16T16:27:40;7.00;;;3.40;;
9200;SDS011;4635;48.686;9.008;2022-10-16T16:30:14;10.77;;;4.20;;
9200;SDS011;4635;48.686;9.008;2022-10-16T16:32:50;11.00;;;3.67;;
9200;SDS011;4635;48.686;9.008;2022-10-16T16:35:31;5.57;;;3.03;;
9200;SDS011;4635;48.686;9.008;2022-10-16T16:38:06;13.87;;;7.97;;
9200;SDS011;4635;48.686;9.008;2022-10-16T16:40:44;21.97;;;12.73;;
9200;SDS011;4635;48.686;9.008;2022-10-16T16:43:15;21.63;;;8.77;;
9200;SDS011;4635;48.686;9.008;2022-10-16T16:45:49;13.20;;;8.63;;
9200;SDS011;4635;48.686;9.008;2022-10-16T16:48:40;14.90;;;7.27;;
9200;SDS011;4635;48.686;9.008;2022-10-16T16:51:12;17.67;;;6.67;;
9200;SDS011;4635;48.686;9.008;2022-10-16T16:53:47;27.97;;;17.27;;
9200;SDS011;4635;48.686;9.008;2022-10-16T16:56:26;14.20;;;7.50;;
9200;SDS011;4635;48.686;9.008;2022-10-16T16:59:04;8.30;;;6.00;;
9200;SDS011;4635;48.686;9.008;2022-10-16T17:01:47;13.10;;;5.60;;